Time;durP1;ratioP1;P1;durP2;ratioP2;P2;SDS_P1;SDS_P2;PMS_P1;PMS_P2;Temp;Humidity;BMP_temperature;BMP_pressure;BME280_temperature;BME280_humidity;BME280_pressure;Samples;Min_cycle;Max_cycle;Signal;HPM_P1;HPM_P2
2021/12/11 00:01:26;;;;;;;17.43;9.73;;;2.20;99.90;;;;;;5085585;28;20458;-81
2021/12/11 00:04:09;;;;;;;17.30;10.47;;;2.30;99.90;;;;;;5064169;28;20404;-81
2021/12/11 00:07:03;;;;;;;15.67;10.43;;;2.30;99.90;;;;;;5081746;28;20508;-81
2021/12/11 00:09:51;;;;;;;15.40;11.00;;;2.40;99.90;;;;;;5065269;28;20386;-80
2021/12/11 00:15:13;;;;;;;18.13;8.73;;;2.20;99.90;;;;;;5066572;28;20372;-81
2021/12/11 00:17:59;;;;;;;11.33;10.10;;;2.30;99.90;;;;;;5081541;28;20387;-81
2021/12/11 00:20:54;;;;;;;15.23;10.20;;;2.30;99.90;;;;;;5081662;28;20386;-81
2021/12/11 00:26:39;;;;;;;11.27;9.67;;;2.40;99.90;;;;;;5082599;28;20794;-81
2021/12/11 00:33:04;;;;;;;13.50;8.97;;;2.50;99.90;;;;;;5082370;28;20361;-81
2021/12/11 00:36:07;;;;;;;12.87;10.70;;;2.60;99.90;;;;;;5082187;28;20415;-83
2021/12/11 00:38:34;;;;;;;11.07;9.13;;;2.70;99.90;;;;;;5092165;28;20433;-81
2021/12/11 00:41:26;;;;;;;16.33;10.37;;;2.90;99.90;;;;;;5080310;28;20374;-79
2021/12/11 00:43:53;;;;;;;13.97;10.03;;;3.00;99.90;;;;;;5097112;28;20402;-80
2021/12/11 00:46:42;;;;;;;17.00;12.57;;;3.00;99.90;;;;;;5087853;28;20433;-80
2021/12/11 00:49:52;;;;;;;18.40;13.00;;;3.10;99.90;;;;;;5080204;28;20372;-81
2021/12/11 00:52:44;;;;;;;18.07;10.17;;;3.30;99.90;;;;;;5080115;28;20376;-81
2021/12/11 00:55:35;;;;;;;15.17;11.27;;;3.30;99.90;;;;;;5079451;28;20740;-81
2021/12/11 00:58:26;;;;;;;15.50;9.67;;;3.40;99.90;;;;;;5078566;28;20360;-81
2021/12/11 01:10:05;;;;;;;17.90;11.37;;;3.20;99.90;;;;;;5079733;28;20415;-81
2021/12/11 01:13:14;;;;;;;18.17;11.20;;;3.40;99.90;;;;;;5079039;28;20390;-82
2021/12/11 01:22:35;;;;;;;18.13;11.53;;;3.70;99.90;;;;;;5079243;28;20507;-81
2021/12/11 01:25:15;;;;;;;15.13;10.60;;;3.80;99.90;;;;;;5079069;28;20393;-80
2021/12/11 01:31:35;;;;;;;25.57;12.60;;;3.70;99.90;;;;;;5079169;28;20421;-80
2021/12/11 01:34:27;;;;;;;14.90;12.03;;;3.80;99.90;;;;;;5079007;28;20379;-82
2021/12/11 01:37:30;;;;;;;12.07;10.20;;;3.80;99.90;;;;;;5079396;28;20401;-82
2021/12/11 01:39:56;;;;;;;17.07;10.17;;;3.90;99.90;;;;;;5077598;28;20443;-81
2021/12/11 01:45:29;;;;;;;16.33;11.30;;;4.00;99.90;;;;;;5079116;28;20360;-81
2021/12/11 01:47:55;;;;;;;18.70;13.30;;;4.00;99.90;;;;;;5079164;28;20405;-80
2021/12/11 01:50:42;;;;;;;14.80;11.77;;;3.90;99.90;;;;;;5060090;28;20995;-82
2021/12/11 01:53:41;;;;;;;16.50;11.13;;;3.90;99.90;;;;;;5079116;28;20405;-81
2021/12/11 01:59:34;;;;;;;12.10;10.23;;;3.90;99.90;;;;;;5078782;28;20435;-81
2021/12/11 02:02:37;;;;;;;17.57;12.03;;;4.00;99.90;;;;;;5078867;28;20927;-81
2021/12/11 02:05:05;;;;;;;12.27;10.87;;;4.10;99.90;;;;;;5078619;28;20367;-81
2021/12/11 02:07:42;;;;;;;21.90;11.83;;;4.00;99.90;;;;;;5079494;28;20356;-81
2021/12/11 02:22:53;;;;;;;15.00;9.93;;;4.10;99.90;;;;;;5083482;28;20493;-81
2021/12/11 02:29:00;;;;;;;16.30;10.47;;;4.10;99.90;;;;;;5083083;28;20396;-81
2021/12/11 02:34:50;;;;;;;23.57;15.07;;;4.00;99.90;;;;;;5083260;28;20381;-81
2021/12/11 02:37:52;;;;;;;22.27;10.93;;;4.00;99.90;;;;;;5083461;28;20466;-81
2021/12/11 02:40:40;;;;;;;22.83;14.17;;;4.00;99.90;;;;;;5083343;28;20417;-81
2021/12/11 02:46:41;;;;;;;19.33;12.50;;;4.00;99.90;;;;;;5083365;28;20409;-80
2021/12/11 02:49:37;;;;;;;23.03;12.30;;;3.90;99.90;;;;;;5083199;28;20390;-81
2021/12/11 02:52:37;;;;;;;21.57;12.20;;;3.90;99.90;;;;;;5082734;28;20372;-81
2021/12/11 02:58:41;;;;;;;23.97;13.03;;;4.00;99.90;;;;;;5086840;28;20371;-81
2021/12/11 03:01:41;;;;;;;31.93;16.30;;;3.90;99.90;;;;;;5083073;28;20751;-81
2021/12/11 03:04:45;;;;;;;17.43;12.07;;;3.90;99.90;;;;;;5082901;28;20482;-81
2021/12/11 03:07:49;;;;;;;17.53;12.87;;;3.90;99.90;;;;;;5081927;28;20356;-81
2021/12/11 03:10:17;;;;;;;22.93;11.47;;;3.80;99.90;;;;;;5082088;28;20819;-81
2021/12/11 03:12:44;;;;;;;26.23;13.97;;;3.80;99.90;;;;;;5082416;28;20428;-81
2021/12/11 03:15:23;;;;;;;17.80;11.70;;;3.80;99.90;;;;;;5082510;28;20428;-81
2021/12/11 03:18:07;;;;;;;16.53;12.53;;;3.80;99.90;;;;;;5082113;28;20364;-81
2021/12/11 03:20:53;;;;;;;14.80;10.70;;;3.80;99.90;;;;;;5079516;28;20856;-81
2021/12/11 03:23:38;;;;;;;18.83;11.10;;;3.80;99.90;;;;;;5082080;28;20448;-81
2021/12/11 03:26:04;;;;;;;30.60;14.27;;;3.80;99.90;;;;;;5082267;28;20441;-81
2021/12/11 03:28:30;;;;;;;18.80;11.23;;;3.80;99.90;;;;;;5081720;28;20364;-82
2021/12/11 03:31:00;;;;;;;21.97;12.23;;;3.70;99.90;;;;;;5080671;28;20680;-81
2021/12/11 03:33:30;;;;;;;16.93;11.57;;;3.70;99.90;;;;;;5082009;28;20451;-82
2021/12/11 03:36:16;;;;;;;13.97;10.63;;;3.70;99.90;;;;;;5082279;28;20968;-81
2021/12/11 03:39:32;;;;;;;18.60;12.10;;;3.60;99.90;;;;;;5082272;28;20826;-81
2021/12/11 03:48:06;;;;;;;19.00;9.53;;;3.60;99.90;;;;;;5081138;28;20444;-82
2021/12/11 03:51:03;;;;;;;15.70;9.33;;;3.60;99.90;;;;;;5081640;28;20444;-81
2021/12/11 03:56:32;;;;;;;19.90;9.47;;;3.60;99.90;;;;;;5082115;28;20439;-81
2021/12/11 04:01:55;;;;;;;17.63;11.67;;;3.60;99.90;;;;;;5086810;28;20371;-81
2021/12/11 04:04:50;;;;;;;12.27;9.87;;;3.60;99.90;;;;;;5080306;28;20826;-81
2021/12/11 04:07:46;;;;;;;17.93;10.40;;;3.70;99.90;;;;;;5062864;28;20357;-81
2021/12/11 04:10:56;;;;;;;21.20;11.20;;;3.70;99.90;;;;;;5065371;28;20371;-82
2021/12/11 04:13:46;;;;;;;22.93;12.57;;;3.70;99.90;;;;;;5080818;28;20360;-81
2021/12/11 04:16:30;;;;;;;17.17;8.57;;;3.70;99.90;;;;;;5079740;28;20403;-81
2021/12/11 04:19:08;;;;;;;21.00;10.57;;;3.70;99.90;;;;;;5079796;28;20802;-81
2021/12/11 04:21:35;;;;;;;12.57;9.10;;;3.70;99.90;;;;;;5079831;28;20482;-81
2021/12/11 04:30:26;;;;;;;14.10;8.90;;;3.80;99.90;;;;;;5080767;28;20535;-80
2021/12/11 04:36:21;;;;;;;18.10;10.57;;;3.70;99.90;;;;;;5080423;28;20398;-82
2021/12/11 04:45:01;;;;;;;14.13;9.33;;;3.80;99.90;;;;;;5080535;28;20872;-81
2021/12/11 04:48:17;;;;;;;21.07;12.20;;;3.80;99.90;;;;;;5059885;28;20884;-81
2021/12/11 04:51:27;;;;;;;15.10;10.87;;;3.80;99.90;;;;;;5059960;28;20402;-81
2021/12/11 05:00:36;;;;;;;25.07;12.00;;;3.70;99.90;;;;;;5070158;28;20380;-80
2021/12/11 05:03:44;;;;;;;14.53;10.10;;;3.70;99.90;;;;;;5080116;28;20469;-81
2021/12/11 05:06:27;;;;;;;19.30;10.33;;;3.80;99.90;;;;;;5078772;28;20392;-81
2021/12/11 05:15:08;;;;;;;9.23;7.73;;;3.80;99.90;;;;;;5080152;28;20368;-81
2021/12/11 05:18:04;;;;;;;11.83;8.50;;;3.70;99.90;;;;;;5082565;28;20377;-81
2021/12/11 05:20:50;;;;;;;11.83;8.17;;;3.70;99.90;;;;;;5088108;28;20363;-81
2021/12/11 05:23:28;;;;;;;12.47;8.23;;;3.80;99.90;;;;;;5088674;28;20529;-81
2021/12/11 05:32:20;;;;;;;11.53;8.67;;;3.70;99.90;;;;;;5080787;28;20401;-81
2021/12/11 05:35:11;;;;;;;9.63;7.90;;;3.70;99.90;;;;;;5080749;28;20406;-81
2021/12/11 05:37:38;;;;;;;16.37;8.50;;;3.70;99.90;;;;;;5080665;28;20476;-81
2021/12/11 05:40:36;;;;;;;13.40;8.93;;;3.70;99.90;;;;;;5062370;28;20375;-81
2021/12/11 05:43:20;;;;;;;12.80;9.13;;;3.80;99.90;;;;;;5079623;28;20443;-82
2021/12/11 05:46:17;;;;;;;12.60;9.40;;;3.80;99.90;;;;;;5079314;28;20364;-81
2021/12/11 05:49:13;;;;;;;13.87;8.97;;;3.80;99.90;;;;;;5080139;28;20394;-81
2021/12/11 05:52:28;;;;;;;15.10;10.07;;;3.80;99.90;;;;;;5079349;28;20360;-81
2021/12/11 05:58:12;;;;;;;16.93;9.33;;;3.80;99.90;;;;;;5091864;28;20378;-81
2021/12/11 06:00:45;;;;;;;12.20;9.20;;;3.80;99.90;;;;;;5092056;28;20432;-81
2021/12/11 06:06:15;;;;;;;10.67;8.67;;;3.70;99.90;;;;;;5093735;28;20382;-81
2021/12/11 06:08:53;;;;;;;14.17;10.90;;;3.80;99.90;;;;;;5090575;28;20376;-81
2021/12/11 06:20:07;;;;;;;13.47;10.00;;;3.80;99.90;;;;;;5080338;28;20433;-81
2021/12/11 06:25:34;;;;;;;17.90;11.40;;;3.80;99.90;;;;;;5079273;28;20749;-81
2021/12/11 06:28:01;;;;;;;15.20;9.73;;;3.80;99.90;;;;;;5079415;28;20381;-79
2021/12/11 06:30:57;;;;;;;15.77;9.80;;;3.80;99.90;;;;;;5079152;28;20484;-81
2021/12/11 06:33:35;;;;;;;18.40;11.20;;;3.80;99.90;;;;;;5078717;28;20722;-81
2021/12/11 06:36:06;;;;;;;15.57;9.23;;;3.90;99.90;;;;;;5077389;28;20376;-81
2021/12/11 06:38:51;;;;;;;18.80;10.80;;;3.90;99.90;;;;;;5079057;28;20524;-82
2021/12/11 06:41:21;;;;;;;17.17;11.43;;;3.90;99.90;;;;;;5078404;28;20372;-82
2021/12/11 06:43:49;;;;;;;34.00;11.23;;;4.00;99.90;;;;;;5078748;28;20579;-81
2021/12/11 06:46:34;;;;;;;14.53;10.00;;;4.00;99.90;;;;;;5078852;28;20392;-81
2021/12/11 06:55:06;;;;;;;19.80;13.00;;;4.00;99.90;;;;;;5063412;28;20373;-81
2021/12/11 06:58:03;;;;;;;19.90;9.87;;;3.90;99.90;;;;;;5082404;28;20395;-81
2021/12/11 07:00:53;;;;;;;17.70;10.80;;;4.00;99.90;;;;;;5082483;28;20425;-81
2021/12/11 07:06:42;;;;;;;19.00;11.67;;;4.00;99.90;;;;;;5082184;28;20379;-81
2021/12/11 07:09:23;;;;;;;22.90;14.43;;;4.00;99.90;;;;;;5047420;28;20388;-81
2021/12/11 07:12:13;;;;;;;17.13;10.60;;;4.00;99.90;;;;;;5081929;28;20400;-81
2021/12/11 07:14:51;;;;;;;17.50;13.13;;;4.00;99.90;;;;;;5081238;28;20384;-80
2021/12/11 07:17:18;;;;;;;21.73;11.00;;;4.00;99.90;;;;;;5081798;28;20856;-81
2021/12/11 07:23:12;;;;;;;20.93;9.23;;;3.90;99.90;;;;;;5081499;28;20540;-81
2021/12/11 07:28:48;;;;;;;35.97;19.57;;;4.00;99.90;;;;;;5081536;28;20759;-81
2021/12/11 07:31:27;;;;;;;28.27;17.23;;;4.00;99.90;;;;;;5081925;28;20372;-80
2021/12/11 07:34:17;;;;;;;16.47;10.33;;;3.90;99.90;;;;;;5081580;28;20393;-81
2021/12/11 07:37:16;;;;;;;15.13;9.70;;;4.10;99.90;;;;;;5065769;28;20505;-81
2021/12/11 07:40:25;;;;;;;14.87;9.40;;;4.20;99.90;;;;;;5081569;28;20432;-81
2021/12/11 07:43:16;;;;;;;18.90;10.70;;;4.20;99.90;;;;;;5080967;28;20472;-81
2021/12/11 07:49:10;;;;;;;13.47;10.43;;;4.10;99.90;;;;;;5081490;28;20364;-81
2021/12/11 07:51:50;;;;;;;17.73;10.17;;;4.10;99.90;;;;;;5081933;28;20367;-81
2021/12/11 08:03:15;;;;;;;17.53;11.67;;;4.20;99.90;;;;;;5085604;28;20416;-80
2021/12/11 08:05:54;;;;;;;14.00;8.83;;;4.10;99.90;;;;;;5081710;28;20442;-81
2021/12/11 08:11:40;;;;;;;22.77;13.37;;;4.20;99.90;;;;;;5085808;28;20404;-82
2021/12/11 08:14:25;;;;;;;23.53;11.47;;;4.20;99.90;;;;;;5081191;28;20353;-81
2021/12/11 08:16:58;;;;;;;17.00;11.50;;;4.30;99.90;;;;;;5079808;28;20724;-80
2021/12/11 08:19:26;;;;;;;17.00;10.40;;;4.30;99.90;;;;;;5063680;28;20397;-80
2021/12/11 08:22:25;;;;;;;17.23;10.93;;;4.30;99.90;;;;;;5046309;28;20396;-81
2021/12/11 08:28:30;;;;;;;17.13;10.70;;;4.30;99.90;;;;;;5080338;28;20364;-81
2021/12/11 08:31:22;;;;;;;17.97;10.97;;;4.40;99.90;;;;;;5081286;28;20416;-81
2021/12/11 08:34:06;;;;;;;19.80;10.70;;;4.40;99.90;;;;;;5081396;28;20368;-81
2021/12/11 08:36:58;;;;;;;14.93;10.00;;;4.40;99.90;;;;;;5080900;28;20384;-81
2021/12/11 08:39:38;;;;;;;16.60;8.73;;;4.30;99.90;;;;;;5080464;28;20755;-81
2021/12/11 08:42:36;;;;;;;19.07;9.87;;;4.20;99.90;;;;;;5080451;28;20422;-81
2021/12/11 08:45:56;;;;;;;25.67;10.93;;;4.30;99.90;;;;;;5081026;28;20364;-80
2021/12/11 08:48:36;;;;;;;19.87;11.47;;;4.30;99.90;;;;;;5080943;28;20382;-80
2021/12/11 08:51:32;;;;;;;17.60;11.13;;;4.30;99.90;;;;;;5079719;28;20393;-81
2021/12/11 09:00:29;;;;;;;12.33;8.67;;;4.40;99.90;;;;;;5080180;28;20448;-82
2021/12/11 09:03:32;;;;;;;18.17;9.93;;;4.40;99.90;;;;;;5081094;28;20456;-82
2021/12/11 09:06:31;;;;;;;16.83;9.13;;;4.50;99.90;;;;;;5079914;28;20844;-80
2021/12/11 09:09:30;;;;;;;21.03;9.20;;;4.40;99.90;;;;;;5080627;28;20746;-81
2021/12/11 09:12:17;;;;;;;15.13;10.93;;;4.40;99.90;;;;;;5081326;28;20390;-81
2021/12/11 09:15:05;;;;;;;19.00;11.10;;;4.50;99.90;;;;;;5062570;28;20368;-80
2021/12/11 09:18:01;;;;;;;22.17;11.40;;;4.60;99.90;;;;;;5080110;28;20360;-81
2021/12/11 09:24:17;;;;;;;17.33;8.33;;;4.50;99.90;;;;;;5079345;28;20415;-81
2021/12/11 09:27:02;;;;;;;26.10;11.73;;;4.60;99.90;;;;;;5080112;28;20368;-80
2021/12/11 09:29:34;;;;;;;14.40;10.40;;;4.70;99.90;;;;;;5078369;28;20389;-81
2021/12/11 09:32:25;;;;;;;16.30;8.73;;;4.70;99.90;;;;;;5079436;28;20401;-81
2021/12/11 09:35:21;;;;;;;12.50;9.37;;;4.70;99.90;;;;;;5048869;28;20407;-81
2021/12/11 09:41:04;;;;;;;14.30;9.70;;;4.90;99.90;;;;;;5080163;28;20446;-80
2021/12/11 09:43:56;;;;;;;21.70;12.77;;;4.80;99.90;;;;;;5061364;28;20438;-81
2021/12/11 09:47:00;;;;;;;16.90;10.80;;;4.90;99.90;;;;;;5078473;28;20368;-81
2021/12/11 09:56:07;;;;;;;15.93;9.20;;;5.00;99.90;;;;;;5079727;28;20870;-81
2021/12/11 09:58:45;;;;;;;10.27;9.03;;;5.00;99.90;;;;;;5079173;28;20383;-81
2021/12/11 10:05:05;;;;;;;13.93;9.97;;;5.10;99.90;;;;;;5079316;28;20918;-81
2021/12/11 10:07:38;;;;;;;16.97;10.07;;;5.20;99.90;;;;;;5079011;28;20368;-81
2021/12/11 10:10:47;;;;;;;25.50;11.30;;;5.30;99.90;;;;;;5079408;28;20392;-80
2021/12/11 10:13:13;;;;;;;12.37;9.47;;;5.40;99.90;;;;;;5079322;28;20387;-80
2021/12/11 10:16:10;;;;;;;14.60;8.67;;;5.40;99.90;;;;;;5080796;28;20483;-81
2021/12/11 10:18:55;;;;;;;11.27;10.07;;;5.50;99.90;;;;;;5078470;28;20511;-81
2021/12/11 10:24:35;;;;;;;13.53;8.70;;;5.50;99.90;;;;;;5064169;28;20384;-81
2021/12/11 10:33:06;;;;;;;11.33;8.77;;;5.80;99.90;;;;;;5083154;28;20356;-81
2021/12/11 10:36:03;;;;;;;14.20;8.33;;;6.00;99.90;;;;;;5083054;28;20716;-82
2021/12/11 10:38:55;;;;;;;14.70;8.77;;;6.00;99.90;;;;;;5083684;28;20445;-82
2021/12/11 10:41:34;;;;;;;8.50;7.03;;;6.00;99.90;;;;;;5084615;28;20607;-81
2021/12/11 10:44:25;;;;;;;13.20;8.73;;;5.80;99.90;;;;;;5065613;28;20437;-81
2021/12/11 10:47:12;;;;;;;11.70;7.70;;;5.80;99.90;;;;;;5084240;28;20394;-81
2021/12/11 10:49:57;;;;;;;8.70;7.40;;;5.80;99.90;;;;;;5083726;28;20861;-81
2021/12/11 10:52:36;;;;;;;8.33;7.33;;;5.70;99.90;;;;;;5083827;28;20402;-81
2021/12/11 10:55:06;;;;;;;11.63;8.53;;;5.70;99.90;;;;;;5083779;28;20421;-82
2021/12/11 10:57:44;;;;;;;8.60;7.53;;;5.80;99.90;;;;;;5083599;28;20843;-82
2021/12/11 11:00:18;;;;;;;17.97;7.83;;;5.80;99.90;;;;;;5065526;28;20380;-82
2021/12/11 11:03:16;;;;;;;8.37;7.00;;;5.90;99.90;;;;;;5082506;28;20416;-81
2021/12/11 11:05:44;;;;;;;8.10;5.67;;;5.90;99.90;;;;;;5083817;28;20380;-81
2021/12/11 11:08:35;;;;;;;11.17;7.27;;;5.90;99.90;;;;;;5034279;28;20424;-82
2021/12/11 11:11:18;;;;;;;12.80;7.53;;;6.00;99.90;;;;;;5083244;28;20387;-81
2021/12/11 11:14:15;;;;;;;18.57;7.10;;;5.90;99.90;;;;;;5083221;28;20397;-82
2021/12/11 11:16:57;;;;;;;15.53;7.50;;;5.80;99.90;;;;;;5081821;28;20742;-81
2021/12/11 11:19:38;;;;;;;13.20;8.03;;;5.80;99.90;;;;;;5082431;28;20867;-81
2021/12/11 11:22:32;;;;;;;11.60;6.97;;;5.80;99.90;;;;;;5082860;28;20435;-81
2021/12/11 11:28:36;;;;;;;9.90;6.53;;;6.10;99.90;;;;;;5083031;28;20856;-82
2021/12/11 11:31:22;;;;;;;10.63;7.20;;;6.20;99.90;;;;;;5083558;28;20409;-81
2021/12/11 11:34:26;;;;;;;12.90;8.03;;;6.10;99.90;;;;;;5082510;28;20364;-82
2021/12/11 11:36:56;;;;;;;8.03;6.17;;;6.10;99.90;;;;;;5083725;28;20431;-82
2021/12/11 11:39:53;;;;;;;9.73;7.87;;;6.10;99.90;;;;;;5083394;28;20498;-82
2021/12/11 11:48:58;;;;;;;9.50;5.50;;;5.90;99.90;;;;;;5089783;28;20378;-83
2021/12/11 11:51:30;;;;;;;9.83;7.07;;;5.90;99.90;;;;;;5090602;28;20368;-83
2021/12/11 11:57:10;;;;;;;13.70;7.10;;;5.70;99.90;;;;;;5089396;28;20399;-81
2021/12/11 12:06:21;;;;;;;7.33;5.87;;;5.60;99.90;;;;;;5082476;28;20373;-80
2021/12/11 12:09:03;;;;;;;6.40;5.80;;;5.60;99.90;;;;;;5091976;28;20373;-82
2021/12/11 12:11:47;;;;;;;8.47;6.47;;;5.60;99.90;;;;;;5083608;28;20376;-82
2021/12/11 12:17:47;;;;;;;7.80;6.00;;;5.70;99.90;;;;;;5067246;28;20375;-82
2021/12/11 12:20:45;;;;;;;8.83;5.60;;;5.70;99.90;;;;;;5080013;28;20378;-82
2021/12/11 12:26:30;;;;;;;10.43;6.53;;;5.60;99.90;;;;;;5081469;28;20435;-82
2021/12/11 12:29:22;;;;;;;12.93;7.37;;;5.60;99.90;;;;;;5080308;28;20455;-81
2021/12/11 12:32:25;;;;;;;9.70;6.00;;;5.30;99.90;;;;;;5077751;28;20363;-81
2021/12/11 12:35:09;;;;;;;10.40;8.60;;;5.30;99.90;;;;;;5078683;28;20691;-81
2021/12/11 12:38:08;;;;;;;8.10;7.10;;;5.50;99.90;;;;;;5078077;28;20387;-83
2021/12/11 12:41:12;;;;;;;11.17;6.37;;;5.60;99.90;;;;;;5078056;28;20397;-80
2021/12/11 12:44:17;;;;;;;8.03;6.50;;;5.60;99.90;;;;;;5077648;28;20437;-82
2021/12/11 12:46:51;;;;;;;11.93;7.23;;;5.60;99.90;;;;;;5078013;28;20402;-82
2021/12/11 12:49:30;;;;;;;6.63;5.93;;;5.60;99.90;;;;;;5078400;28;20708;-82
2021/12/11 12:55:37;;;;;;;12.27;6.20;;;5.60;99.90;;;;;;5063895;28;20946;-81
2021/12/11 12:58:37;;;;;;;10.10;6.30;;;5.10;99.90;;;;;;5078743;28;20392;-82
2021/12/11 13:04:14;;;;;;;8.43;6.70;;;4.50;99.90;;;;;;5063122;28;20514;-82
2021/12/11 13:07:08;;;;;;;10.10;6.73;;;4.30;99.90;;;;;;5078005;28;20372;-82
2021/12/11 13:12:40;;;;;;;9.77;6.93;;;4.30;99.90;;;;;;5089658;28;20407;-82
2021/12/11 13:15:52;;;;;;;16.03;7.53;;;4.30;99.90;;;;;;5081985;28;20524;-82
2021/12/11 13:30:52;;;;;;;11.47;7.63;;;4.80;99.90;;;;;;5062602;28;20390;-78
2021/12/11 13:36:59;;;;;;;7.77;6.23;;;4.80;99.90;;;;;;5076864;28;20400;-81
2021/12/11 13:39:25;;;;;;;10.83;6.80;;;4.50;99.90;;;;;;5076264;28;20464;-80
2021/12/11 13:42:35;;;;;;;12.48;9.93;;;4.30;99.90;;;;;;5076584;28;20686;-80
2021/12/11 13:48:25;;;;;;;14.60;6.90;;;3.90;99.90;;;;;;5078779;28;20499;-82
2021/12/11 13:54:11;;;;;;;11.43;7.73;;;4.30;99.90;;;;;;5063321;28;20379;-81
2021/12/11 13:57:06;;;;;;;13.83;7.50;;;4.00;99.90;;;;;;5077084;28;20364;-80
2021/12/11 13:59:32;;;;;;;13.67;8.67;;;4.10;99.90;;;;;;5077375;28;20376;-81
2021/12/11 14:02:13;;;;;;;10.67;7.53;;;4.30;99.90;;;;;;5058403;28;20416;-81
2021/12/11 14:04:58;;;;;;;17.47;7.70;;;4.50;99.90;;;;;;5078629;28;20159;-81
2021/12/11 14:07:48;;;;;;;9.37;6.77;;;4.60;99.90;;;;;;5081493;28;20372;-80
2021/12/11 14:11:04;;;;;;;8.43;7.13;;;4.70;99.90;;;;;;5062381;28;20439;-81
2021/12/11 14:13:48;;;;;;;14.60;6.87;;;4.40;99.90;;;;;;5081665;28;20383;-80
2021/12/11 14:16:48;;;;;;;12.73;7.30;;;4.30;99.90;;;;;;5080357;28;20387;-81
2021/12/11 14:19:38;;;;;;;9.53;6.73;;;4.30;99.90;;;;;;5065879;28;20393;-81
2021/12/11 14:22:05;;;;;;;8.63;6.57;;;4.10;99.90;;;;;;5062959;28;20546;-81
2021/12/11 14:25:14;;;;;;;15.80;8.90;;;4.00;99.90;;;;;;5081207;28;20426;-81
2021/12/11 14:28:04;;;;;;;10.37;8.40;;;3.90;99.90;;;;;;5081010;28;20371;-81
2021/12/11 14:30:32;;;;;;;7.30;5.80;;;4.10;99.90;;;;;;5080155;28;20886;-80
2021/12/11 14:33:10;;;;;;;8.30;6.37;;;4.40;99.90;;;;;;5062362;28;20482;-80
2021/12/11 14:36:05;;;;;;;10.00;6.40;;;4.50;99.90;;;;;;5080338;28;20411;-81
2021/12/11 14:39:04;;;;;;;12.30;5.50;;;4.60;99.90;;;;;;5047558;28;20447;-79
2021/12/11 14:41:46;;;;;;;5.27;4.30;;;4.80;99.90;;;;;;5078943;28;20453;-80
2021/12/11 14:44:20;;;;;;;5.67;4.90;;;4.80;99.90;;;;;;5079963;28;20415;-80
2021/12/11 14:47:17;;;;;;;7.60;5.10;;;4.80;99.90;;;;;;5085682;28;20474;-79
2021/12/11 14:50:09;;;;;;;7.37;4.53;;;4.90;99.90;;;;;;5088463;28;20387;-81
2021/12/11 14:55:48;;;;;;;7.10;5.10;;;4.90;99.90;;;;;;5089562;28;20394;-79
2021/12/11 14:58:26;;;;;;;7.50;4.73;;;5.00;99.90;;;;;;5050683;28;20569;-80
2021/12/11 15:01:25;;;;;;;7.93;4.80;;;4.90;99.90;;;;;;5082438;28;20430;-80
2021/12/11 15:04:28;;;;;;;6.23;4.77;;;4.70;99.90;;;;;;5046392;28;20741;-82
2021/12/11 15:06:56;;;;;;;11.70;4.50;;;4.70;99.90;;;;;;5080928;28;20364;-82
2021/12/11 15:15:30;;;;;;;8.87;5.70;;;4.70;99.90;;;;;;5063754;28;20438;-81
2021/12/11 15:18:28;;;;;;;8.03;4.77;;;4.60;99.90;;;;;;5079845;28;20472;-81
2021/12/11 15:24:30;;;;;;;5.10;4.57;;;4.40;99.90;;;;;;5079003;28;20418;-81
2021/12/11 15:27:27;;;;;;;5.33;4.93;;;4.40;99.90;;;;;;5078879;28;20379;-81
2021/12/11 15:36:13;;;;;;;7.33;6.20;;;4.40;99.90;;;;;;5078791;28;20535;-81
2021/12/11 15:42:11;;;;;;;12.10;4.20;;;4.30;99.90;;;;;;5079790;28;20389;-81
2021/12/11 15:48:04;;;;;;;7.43;4.87;;;4.50;99.90;;;;;;5079779;28;20386;-81
2021/12/11 15:53:59;;;;;;;7.00;5.60;;;4.50;99.90;;;;;;5081046;28;20369;-80
2021/12/11 15:56:44;;;;;;;7.03;5.70;;;4.40;99.90;;;;;;5078490;28;20440;-81
2021/12/11 15:59:23;;;;;;;8.03;5.70;;;4.50;99.90;;;;;;5078789;28;20397;-81
2021/12/11 16:02:14;;;;;;;13.77;6.27;;;4.60;99.90;;;;;;5062484;28;20463;-80
2021/12/11 16:05:24;;;;;;;12.10;7.67;;;4.60;99.90;;;;;;5078202;28;20425;-80
2021/12/11 16:14:21;;;;;;;12.63;8.33;;;4.40;99.90;;;;;;5078392;28;20444;-81
2021/12/11 16:17:19;;;;;;;13.33;8.50;;;4.50;99.90;;;;;;5079241;28;20360;-80
2021/12/11 16:20:17;;;;;;;13.70;12.33;;;4.60;99.90;;;;;;5079590;28;20438;-81
2021/12/11 16:29:27;;;;;;;12.03;7.87;;;4.60;99.90;;;;;;5066190;28;20368;-81
2021/12/11 16:32:05;;;;;;;18.03;12.00;;;4.60;99.90;;;;;;5079362;28;20364;-82
2021/12/11 16:34:43;;;;;;;15.27;10.03;;;4.60;99.90;;;;;;5078932;28;20360;-81
2021/12/11 16:40:18;;;;;;;13.87;8.87;;;4.60;99.90;;;;;;5064315;28;20409;-81
2021/12/11 16:43:12;;;;;;;9.30;7.90;;;4.60;99.90;;;;;;5079833;28;20807;-81
2021/12/11 16:45:42;;;;;;;12.80;9.90;;;4.40;99.90;;;;;;5073761;28;20982;-81
2021/12/11 16:48:24;;;;;;;12.23;9.60;;;4.50;99.90;;;;;;5077661;28;20469;-81
2021/12/11 16:51:39;;;;;;;15.23;8.90;;;4.50;99.90;;;;;;5077234;28;20369;-81
2021/12/11 16:57:23;;;;;;;11.53;9.13;;;4.50;99.90;;;;;;5077484;28;20402;-81
2021/12/11 17:03:20;;;;;;;17.93;8.70;;;4.60;99.90;;;;;;5077692;28;20481;-80
2021/12/11 17:06:20;;;;;;;17.53;10.70;;;4.50;99.90;;;;;;5061454;28;20396;-80
2021/12/11 17:09:10;;;;;;;13.33;9.10;;;4.30;99.90;;;;;;5058543;28;20423;-83
2021/12/11 17:18:14;;;;;;;11.77;8.70;;;3.80;99.90;;;;;;5081535;28;20799;-80
2021/12/11 17:24:31;;;;;;;11.47;6.60;;;3.60;99.90;;;;;;5081864;28;20474;-82
2021/12/11 17:27:16;;;;;;;14.43;9.80;;;3.80;99.90;;;;;;5085544;28;20369;-81
2021/12/11 17:30:19;;;;;;;14.70;9.30;;;3.90;99.90;;;;;;5076126;28;20361;-82
2021/12/11 17:35:41;;;;;;;15.37;10.13;;;4.00;99.90;;;;;;5081579;28;20372;-81
2021/12/11 17:44:55;;;;;;;14.03;11.77;;;4.00;99.90;;;;;;5081613;28;20534;-82
2021/12/11 17:47:57;;;;;;;20.10;12.20;;;4.00;99.90;;;;;;5081627;28;20420;-82
2021/12/11 17:50:37;;;;;;;21.80;15.77;;;4.00;99.90;;;;;;5081486;28;20451;-82
2021/12/11 17:53:06;;;;;;;16.77;13.50;;;4.00;99.90;;;;;;5082961;28;20836;-82
2021/12/11 17:56:00;;;;;;;19.20;12.33;;;3.90;99.90;;;;;;5082224;28;20461;-82
2021/12/11 17:58:43;;;;;;;20.30;13.10;;;3.80;99.90;;;;;;5062212;28;20368;-81
2021/12/11 18:01:41;;;;;;;14.80;11.63;;;3.80;99.90;;;;;;5080896;28;20426;-82
2021/12/11 18:04:20;;;;;;;24.53;12.00;;;3.70;99.90;;;;;;5061964;28;20514;-83
2021/12/11 18:07:25;;;;;;;19.63;12.10;;;3.60;99.90;;;;;;5045722;28;20414;-82
2021/12/11 18:10:34;;;;;;;23.90;12.70;;;3.70;99.90;;;;;;5080845;28;20509;-82
2021/12/11 18:13:17;;;;;;;15.70;11.73;;;3.70;99.90;;;;;;5080356;28;20392;-82
2021/12/11 18:16:08;;;;;;;18.10;13.60;;;3.90;99.90;;;;;;5081997;28;20816;-81
2021/12/11 18:18:55;;;;;;;19.47;13.77;;;4.10;99.90;;;;;;5080779;28;20373;-82
2021/12/11 18:21:31;;;;;;;28.77;13.47;;;4.10;99.90;;;;;;5080825;28;20861;-82
2021/12/11 18:27:05;;;;;;;23.53;11.60;;;4.10;99.90;;;;;;5081358;28;20394;-82
2021/12/11 18:29:37;;;;;;;14.90;10.33;;;4.20;99.90;;;;;;5082163;28;20456;-82
2021/12/11 18:32:36;;;;;;;18.47;12.20;;;4.00;99.90;;;;;;5093394;28;20387;-80
2021/12/11 18:38:09;;;;;;;17.67;13.93;;;3.80;99.90;;;;;;5075947;28;20454;-81
2021/12/11 18:40:43;;;;;;;13.27;10.53;;;4.00;99.90;;;;;;5081390;28;20433;-81
2021/12/11 18:52:15;;;;;;;17.87;11.10;;;4.20;99.90;;;;;;5089912;28;20449;-81
2021/12/11 18:58:10;;;;;;;18.43;12.63;;;4.30;99.90;;;;;;5090927;28;20392;-81
2021/12/11 19:04:39;;;;;;;14.60;13.07;;;3.80;99.90;;;;;;5084341;28;20494;-80
2021/12/11 19:13:29;;;;;;;16.57;12.90;;;3.80;99.90;;;;;;5083363;28;20455;-80
2021/12/11 19:16:30;;;;;;;22.60;14.40;;;3.70;99.90;;;;;;5047909;28;20758;-79
2021/12/11 19:19:16;;;;;;;27.03;17.20;;;4.00;99.90;;;;;;5048106;28;20402;-80
2021/12/11 19:22:05;;;;;;;18.87;14.67;;;4.00;99.90;;;;;;5066015;28;20772;-79
2021/12/11 19:24:57;;;;;;;23.30;12.87;;;4.00;99.90;;;;;;5080834;28;20376;-80
2021/12/11 19:27:39;;;;;;;25.80;14.23;;;4.00;99.90;;;;;;5033888;28;20397;-79
2021/12/11 19:30:52;;;;;;;17.77;12.97;;;3.70;99.90;;;;;;5065911;28;20485;-79
2021/12/11 19:33:26;;;;;;;24.17;13.93;;;3.70;99.90;;;;;;5070561;28;20368;-79
2021/12/11 19:35:57;;;;;;;14.17;10.77;;;3.70;99.90;;;;;;5010950;28;20381;-78
2021/12/11 19:38:24;;;;;;;24.07;13.30;;;3.80;99.90;;;;;;5033595;28;20422;-78
2021/12/11 19:43:42;;;;;;;21.20;13.37;;;4.00;99.90;;;;;;5008731;28;20423;-78
2021/12/11 19:46:26;;;;;;;16.70;13.93;;;4.10;99.90;;;;;;5006624;28;20391;-79
2021/12/11 19:49:20;;;;;;;22.13;11.93;;;4.00;99.90;;;;;;5002565;28;20539;-79
2021/12/11 19:52:19;;;;;;;13.33;9.97;;;3.90;99.90;;;;;;4992963;28;20747;-79
2021/12/11 19:54:59;;;;;;;14.20;10.93;;;3.70;99.90;;;;;;4999366;28;20384;-79
2021/12/11 19:57:33;;;;;;;14.53;10.60;;;3.30;99.90;;;;;;4970399;28;20371;-79
2021/12/11 20:00:35;;;;;;;14.90;10.70;;;3.50;99.90;;;;;;4983269;28;20384;-79
2021/12/11 20:03:04;;;;;;;17.90;11.73;;;3.40;99.90;;;;;;4987677;28;20427;-79
2021/12/11 20:05:49;;;;;;;15.97;12.07;;;3.50;99.90;;;;;;4953587;28;20398;-79